Time;durP1;ratioP1;P1;durP2;ratioP2;P2;SDS_P1;SDS_P2;PMS_P1;PMS_P2;Temp;Humidity;BMP_temperature;BMP_pressure;BME280_temperature;BME280_humidity;BME280_pressure;Samples;Min_cycle;Max_cycle;Signal;HPM_P1;HPM_P2
2021/06/13 00:00:39;;;;;;;8.70;6.38;;;15.40;99.90;;;;;;5012051;28;20029;-77
2021/06/13 00:03:05;;;;;;;8.38;6.47;;;16.40;99.90;;;;;;5012404;28;20034;-80
2021/06/13 00:05:30;;;;;;;9.85;6.20;;;15.80;99.90;;;;;;5012188;28;20107;-76
2021/06/13 00:07:56;;;;;;;11.70;6.82;;;15.10;99.90;;;;;;5011874;28;20505;-77
2021/06/13 00:10:22;;;;;;;9.48;6.30;;;15.50;99.90;;;;;;5011705;28;20030;-77
2021/06/13 00:12:48;;;;;;;8.93;6.35;;;14.80;99.90;;;;;;5012030;28;20026;-78
2021/06/13 00:15:18;;;;;;;7.22;6.50;;;14.90;99.90;;;;;;5012281;28;20022;-78
2021/06/13 00:17:43;;;;;;;9.68;6.47;;;15.00;99.90;;;;;;4995243;28;20025;-79
2021/06/13 00:20:12;;;;;;;8.20;6.43;;;15.70;99.90;;;;;;4994005;28;20398;-77
2021/06/13 00:22:38;;;;;;;10.75;6.20;;;15.00;99.90;;;;;;5011773;28;20030;-77
2021/06/13 00:25:06;;;;;;;9.38;6.45;;;14.80;99.90;;;;;;4994325;28;20108;-77
2021/06/13 00:27:32;;;;;;;10.20;7.00;;;14.80;99.90;;;;;;5011608;28;20034;-77
2021/06/13 00:29:58;;;;;;;10.90;7.32;;;15.70;99.90;;;;;;5011686;28;20156;-76
2021/06/13 00:32:23;;;;;;;12.10;7.63;;;14.80;99.90;;;;;;5011922;28;20022;-79
2021/06/13 00:34:49;;;;;;;11.38;7.18;;;14.80;99.90;;;;;;5011860;28;20034;-77
2021/06/13 00:37:15;;;;;;;10.27;6.72;;;14.50;99.90;;;;;;5012323;28;20025;-77
2021/06/13 00:39:40;;;;;;;8.98;7.07;;;14.60;99.90;;;;;;5016029;28;20034;-78
2021/06/13 00:42:06;;;;;;;12.32;7.82;;;15.30;99.90;;;;;;5015303;28;20117;-78
2021/06/13 00:44:32;;;;;;;12.38;7.50;;;15.30;99.90;;;;;;5015535;28;20053;-78
2021/06/13 00:46:58;;;;;;;9.10;7.05;;;14.50;99.90;;;;;;4997441;28;20030;-78
2021/06/13 00:49:24;;;;;;;10.70;7.85;;;14.40;99.90;;;;;;4996966;28;20038;-78
2021/06/13 00:51:50;;;;;;;9.55;7.03;;;14.30;99.90;;;;;;5015413;28;20042;-77
2021/06/13 00:54:16;;;;;;;11.32;7.03;;;14.60;99.90;;;;;;5015090;28;20092;-80
2021/06/13 00:56:42;;;;;;;9.95;7.03;;;14.30;99.90;;;;;;5002887;28;20018;-80
2021/06/13 00:59:07;;;;;;;16.02;7.38;;;14.40;99.90;;;;;;5002946;28;20490;-79
2021/06/13 01:01:33;;;;;;;10.90;7.45;;;14.50;99.90;;;;;;5018521;28;20034;-79
2021/06/13 01:03:59;;;;;;;15.13;8.05;;;14.50;99.90;;;;;;5004798;28;20054;-78
2021/06/13 01:06:41;;;;;;;10.18;8.07;;;15.20;99.90;;;;;;5003660;28;20114;-80
2021/06/13 01:09:10;;;;;;;12.43;8.20;;;14.10;99.90;;;;;;5018734;28;20040;-78
2021/06/13 01:11:46;;;;;;;11.45;8.20;;;14.10;99.90;;;;;;5017980;28;20042;-77
2021/06/13 01:14:36;;;;;;;15.35;8.20;;;14.00;99.90;;;;;;5017408;28;20022;-78
2021/06/13 01:17:15;;;;;;;11.13;7.47;;;14.00;99.90;;;;;;5017149;28;20029;-78
2021/06/13 01:20:36;;;;;;;17.08;7.65;;;13.80;99.90;;;;;;5016231;28;20034;-78
2021/06/13 01:23:24;;;;;;;12.15;7.43;;;13.80;99.90;;;;;;4994985;28;20045;-78
2021/06/13 01:26:06;;;;;;;11.25;7.25;;;13.70;99.90;;;;;;5017013;28;20033;-78
2021/06/13 01:28:53;;;;;;;13.60;8.13;;;13.70;99.90;;;;;;5016442;28;20045;-77
2021/06/13 01:31:21;;;;;;;10.93;7.05;;;13.70;99.90;;;;;;5016836;28;20032;-78
2021/06/13 01:33:48;;;;;;;9.82;8.00;;;14.30;99.90;;;;;;5017201;28;20026;-78
2021/06/13 01:36:15;;;;;;;9.98;7.65;;;13.90;99.90;;;;;;5016833;28;20033;-77
2021/06/13 01:38:44;;;;;;;12.38;7.43;;;14.10;99.90;;;;;;5016226;28;20037;-78
2021/06/13 01:41:14;;;;;;;13.85;7.82;;;13.60;99.90;;;;;;5016554;28;20112;-78
2021/06/13 01:43:40;;;;;;;16.27;8.70;;;14.00;99.90;;;;;;4983548;28;20033;-78
2021/06/13 01:46:07;;;;;;;12.65;8.60;;;13.70;99.90;;;;;;5016525;28;20450;-78
2021/06/13 01:48:35;;;;;;;10.30;8.45;;;13.70;99.90;;;;;;5016856;28;20033;-78
2021/06/13 19:51:40;;;;;;;3.70;1.35;;;22.20;60.10;;;;;;5114129;27;20313;-77
2021/06/13 19:54:11;;;;;;;6.40;1.50;;;19.80;57.70;;;;;;5078391;28;20028;-77
2021/06/13 19:56:37;;;;;;;5.60;1.45;;;19.60;57.50;;;;;;5077720;28;20036;-76
2021/06/13 19:59:02;;;;;;;4.82;2.83;;;19.30;58.60;;;;;;5058222;28;20032;-76
2021/06/13 20:01:30;;;;;;;5.45;2.70;;;19.20;58.80;;;;;;5055063;28;20112;-76
2021/06/13 20:03:58;;;;;;;4.43;2.20;;;19.10;59.90;;;;;;5057973;28;20074;-76
2021/06/13 20:06:24;;;;;;;5.65;2.15;;;18.90;60.00;;;;;;5056589;28;20025;-76
2021/06/13 20:08:50;;;;;;;6.32;2.03;;;18.80;61.00;;;;;;5058586;28;20048;-76
2021/06/13 20:11:16;;;;;;;3.40;1.23;;;18.70;61.70;;;;;;5057601;28;20370;-77
2021/06/13 20:13:41;;;;;;;5.82;1.83;;;18.70;60.80;;;;;;5058025;28;20029;-77
2021/06/13 20:16:10;;;;;;;3.95;1.67;;;18.60;61.90;;;;;;5057817;28;20128;-78
2021/06/13 20:18:38;;;;;;;3.30;1.75;;;18.60;61.80;;;;;;5060523;28;20540;-79
2021/06/13 20:21:09;;;;;;;3.55;1.50;;;18.60;61.60;;;;;;5056103;28;20067;-76
2021/06/13 20:23:35;;;;;;;5.50;1.45;;;18.40;64.60;;;;;;5062113;28;20029;-76
2021/06/13 20:26:01;;;;;;;3.83;1.40;;;19.00;68.00;;;;;;5069686;28;20032;-77
2021/06/13 20:28:27;;;;;;;2.72;1.40;;;18.30;68.70;;;;;;5050933;28;20029;-77
2021/06/13 20:30:58;;;;;;;3.30;1.30;;;17.70;69.20;;;;;;5047187;28;20041;-77
2021/06/13 20:33:24;;;;;;;6.40;1.42;;;17.50;69.20;;;;;;5048613;28;20116;-77
2021/06/13 20:35:50;;;;;;;2.63;1.25;;;17.40;71.20;;;;;;5048703;28;20454;-76
2021/06/13 20:38:17;;;;;;;2.78;1.55;;;17.30;72.70;;;;;;5043663;28;20027;-77
2021/06/13 20:40:44;;;;;;;3.35;1.80;;;17.20;73.00;;;;;;5050404;28;20040;-77
2021/06/13 20:43:10;;;;;;;4.32;1.50;;;17.10;73.10;;;;;;5047662;28;20386;-77
2021/06/13 20:45:37;;;;;;;5.35;1.60;;;17.10;73.90;;;;;;5047926;28;20053;-77
2021/06/13 20:48:04;;;;;;;5.05;1.55;;;17.10;75.90;;;;;;5050046;28;20052;-77
2021/06/13 20:50:33;;;;;;;7.07;1.90;;;17.00;75.80;;;;;;5054035;28;20033;-76
2021/06/13 20:53:00;;;;;;;3.15;1.50;;;18.10;78.60;;;;;;5053101;28;20022;-77
2021/06/13 20:55:25;;;;;;;6.00;1.52;;;16.70;79.60;;;;;;5053478;28;20025;-77
2021/06/13 20:57:51;;;;;;;3.85;1.70;;;16.80;80.10;;;;;;5048855;28;20115;-76
2021/06/13 21:00:22;;;;;;;4.13;1.83;;;16.60;81.70;;;;;;5047192;28;20030;-77
2021/06/13 21:02:49;;;;;;;2.70;1.40;;;16.50;82.30;;;;;;5036483;28;20461;-76
2021/06/13 21:05:15;;;;;;;4.15;1.20;;;16.50;80.80;;;;;;5034023;28;20033;-76
2021/06/13 21:07:43;;;;;;;4.40;1.40;;;16.60;79.30;;;;;;5033888;28;20490;-76
2021/06/13 21:10:18;;;;;;;6.22;1.70;;;16.70;79.10;;;;;;5033391;28;20091;-76
2021/06/13 21:12:54;;;;;;;5.15;1.50;;;16.50;80.10;;;;;;5050542;28;20378;-76
2021/06/13 21:15:20;;;;;;;2.38;1.10;;;16.70;81.50;;;;;;5045690;28;20026;-76
2021/06/13 21:17:48;;;;;;;3.28;1.80;;;16.40;84.30;;;;;;5033180;28;20449;-77
2021/06/13 21:20:14;;;;;;;3.67;1.35;;;16.30;85.60;;;;;;5032652;28;20037;-77
2021/06/13 21:22:40;;;;;;;3.17;1.65;;;16.20;87.80;;;;;;5034990;28;20029;-77
2021/06/13 21:25:07;;;;;;;3.03;1.60;;;16.10;89.50;;;;;;5034327;28;20053;-76
2021/06/13 21:27:33;;;;;;;2.33;1.30;;;16.10;91.10;;;;;;5032885;28;20455;-77
2021/06/13 21:29:58;;;;;;;4.10;1.83;;;17.00;92.10;;;;;;5032242;28;20120;-77
2021/06/13 21:32:24;;;;;;;3.60;1.45;;;15.90;92.80;;;;;;5034779;28;20037;-76
2021/06/13 21:34:50;;;;;;;4.47;1.77;;;16.40;94.30;;;;;;5033142;28;20036;-77
2021/06/13 21:37:16;;;;;;;4.13;1.63;;;15.90;95.70;;;;;;5030004;28;20089;-78
2021/06/13 21:39:42;;;;;;;5.80;1.80;;;15.80;96.90;;;;;;5017040;28;20017;-77
2021/06/13 21:42:08;;;;;;;3.72;1.48;;;15.80;97.30;;;;;;5030678;28;20033;-77
2021/06/13 21:44:34;;;;;;;3.90;1.38;;;15.80;98.30;;;;;;5033438;28;20037;-76
2021/06/13 21:47:00;;;;;;;4.45;1.65;;;15.70;98.80;;;;;;5031588;28;20039;-76
2021/06/13 21:49:25;;;;;;;4.85;1.50;;;15.70;99.20;;;;;;5031967;28;20040;-75
2021/06/13 21:51:51;;;;;;;7.60;1.75;;;15.70;99.70;;;;;;5033286;28;20486;-76
2021/06/13 21:54:17;;;;;;;3.85;2.20;;;15.80;99.90;;;;;;5033501;28;20033;-76
2021/06/13 21:56:43;;;;;;;3.92;1.65;;;15.80;99.90;;;;;;5031651;28;20052;-76
2021/06/13 21:59:09;;;;;;;6.32;2.13;;;16.30;99.90;;;;;;5032438;28;20040;-76
2021/06/13 22:01:35;;;;;;;4.00;1.73;;;15.90;99.90;;;;;;5031492;28;20030;-76
2021/06/13 22:04:00;;;;;;;4.30;1.70;;;15.90;99.90;;;;;;5028376;28;20113;-76
2021/06/13 22:06:26;;;;;;;4.22;1.70;;;15.80;99.90;;;;;;5012375;28;20100;-76
2021/06/13 22:08:52;;;;;;;4.55;2.53;;;15.80;99.90;;;;;;5011671;28;20520;-76
2021/06/13 22:11:20;;;;;;;3.17;1.80;;;15.60;99.90;;;;;;5032670;28;20390;-76
2021/06/13 22:13:49;;;;;;;5.05;1.88;;;16.30;99.90;;;;;;5032040;28;20042;-76
2021/06/13 22:16:15;;;;;;;4.95;1.70;;;15.50;99.90;;;;;;5032758;28;20021;-76
2021/06/13 22:18:40;;;;;;;3.20;1.55;;;15.80;99.90;;;;;;5032331;28;20087;-76
2021/06/13 22:21:06;;;;;;;5.05;2.03;;;15.60;99.90;;;;;;5032311;28;20490;-76
2021/06/13 22:23:32;;;;;;;2.92;1.60;;;15.70;99.90;;;;;;5032717;28;20099;-76
2021/06/13 22:25:58;;;;;;;4.63;1.52;;;16.00;99.90;;;;;;5032542;28;20486;-76
2021/06/13 22:28:24;;;;;;;4.60;2.00;;;15.50;99.90;;;;;;5032174;28;20495;-76
2021/06/13 22:30:51;;;;;;;2.78;1.63;;;15.60;99.90;;;;;;5027353;28;20514;-77
2021/06/13 22:33:17;;;;;;;4.45;1.80;;;16.70;99.90;;;;;;5011513;28;20025;-76
2021/06/13 22:35:42;;;;;;;4.55;1.80;;;15.50;99.90;;;;;;5023786;28;20440;-76
2021/06/13 22:38:08;;;;;;;5.35;1.50;;;15.70;99.90;;;;;;5032253;28;20021;-77
2021/06/13 22:40:35;;;;;;;3.25;1.63;;;15.50;99.90;;;;;;5027355;28;20129;-76
2021/06/13 22:43:02;;;;;;;6.35;1.80;;;15.40;99.90;;;;;;5012759;28;20025;-76
2021/06/13 22:45:28;;;;;;;4.90;1.90;;;15.40;99.90;;;;;;5021513;28;20124;-76
2021/06/13 22:47:53;;;;;;;4.10;1.73;;;16.90;99.90;;;;;;5032054;28;20120;-76
2021/06/13 22:50:21;;;;;;;2.80;1.45;;;16.20;99.90;;;;;;5031697;28;20068;-76
2021/06/13 22:52:47;;;;;;;5.65;1.88;;;16.60;99.90;;;;;;5032201;28;20051;-77
2021/06/13 22:55:15;;;;;;;3.53;1.58;;;15.80;99.90;;;;;;5032218;28;20032;-76
2021/06/13 22:57:42;;;;;;;6.43;1.90;;;15.60;99.90;;;;;;5031796;28;20045;-77
2021/06/13 23:00:09;;;;;;;3.15;1.65;;;15.60;99.90;;;;;;5031360;28;20032;-76
2021/06/13 23:02:36;;;;;;;4.07;1.80;;;15.60;99.90;;;;;;5012422;28;20495;-76
2021/06/13 23:05:04;;;;;;;3.45;1.70;;;15.50;99.90;;;;;;5017711;28;20056;-76
2021/06/13 23:07:29;;;;;;;4.03;1.88;;;15.60;99.90;;;;;;5030594;28;20037;-76
2021/06/13 23:09:55;;;;;;;5.47;1.80;;;15.60;99.90;;;;;;5029800;28;20034;-77
2021/06/13 23:12:20;;;;;;;5.45;2.00;;;15.90;99.90;;;;;;5037380;28;20052;-76
2021/06/13 23:14:46;;;;;;;4.18;2.10;;;15.70;99.90;;;;;;5031644;28;20080;-76
2021/06/13 23:17:11;;;;;;;3.45;1.52;;;15.60;99.90;;;;;;5030161;28;20079;-76
2021/06/13 23:19:37;;;;;;;4.05;1.70;;;15.60;99.90;;;;;;5031083;28;20550;-76
2021/06/13 23:22:03;;;;;;;4.57;1.70;;;15.80;99.90;;;;;;5031702;28;20049;-76
2021/06/13 23:24:31;;;;;;;4.50;1.77;;;15.50;99.90;;;;;;5031238;28;20071;-76
2021/06/13 23:26:56;;;;;;;3.70;1.88;;;15.30;99.90;;;;;;5027774;28;20490;-76
2021/06/13 23:29:22;;;;;;;5.25;1.90;;;15.20;99.90;;;;;;5028666;28;20108;-76
2021/06/13 23:31:48;;;;;;;3.45;1.80;;;15.10;99.90;;;;;;5031499;28;20055;-76
2021/06/13 23:34:13;;;;;;;3.92;1.83;;;15.00;99.90;;;;;;5028769;28;20033;-75
2021/06/13 23:36:39;;;;;;;4.28;2.00;;;15.20;99.90;;;;;;5031385;28;20030;-75
2021/06/13 23:39:05;;;;;;;3.47;1.77;;;14.90;99.90;;;;;;5030924;28;20052;-76
2021/06/13 23:41:31;;;;;;;6.93;1.80;;;14.80;99.90;;;;;;5030789;28;20442;-76
2021/06/13 23:43:56;;;;;;;3.55;2.00;;;14.80;99.90;;;;;;5046971;28;20072;-76
2021/06/13 23:46:22;;;;;;;5.40;1.85;;;15.90;99.90;;;;;;5034070;28;20083;-76
2021/06/13 23:48:48;;;;;;;3.67;1.75;;;14.90;99.90;;;;;;5030749;28;20029;-76
2021/06/13 23:51:13;;;;;;;3.15;1.80;;;14.70;99.90;;;;;;5030467;28;20041;-75
2021/06/13 23:53:39;;;;;;;7.65;2.13;;;15.00;99.90;;;;;;5031422;28;20032;-75
2021/06/13 23:56:05;;;;;;;7.57;2.22;;;14.80;99.90;;;;;;5031285;28;20425;-75
2021/06/13 23:58:30;;;;;;;5.43;1.75;;;14.90;99.90;;;;;;5030698;28;20029;-76
